LOWG METAR and TAF | Updated Today

LOWG METAR

Graz Airport

Observation time: 26 min. ago

LOWG 200620Z VRB02KT CAVOK 16/10 Q1024 NOSIG

Need help? Read our tutorial on how to read METARs or read the parsed version below.

Graz Airport (LOWG) METAR

  • Weather conditions on Fri, 20 May 2022 06:20:00 +0000 (26 min. ago):
  • Present conditions: Dry
  • Clouds: Clear skies
  • Visibility: Greater than 10 km
  • Wind: Variable at 2 knots
  • Temperature: 16 celsius
  • Dew point: 10 celsius
  • Pressure: 1024 millibars
  • Remarks: None


Useful to know...

LOWG TAF

Graz Airport

TAF LOWG 200515Z 2006/2106 VRB05KT 9999 FEW060 TX30/2014Z TN15/2006Z TEMPO 2011/2015 19008KT FEW060CB
Observation time: 1:31 hr. ago
Need help? Read our tutorial on how to read TAFs or read the parsed version below.

Parsed version of TAF for Graz Airport (LOWG)

  • From 20 May at 06:00 UTC, to day 21 of the month at 06:00 UTC
  • Clouds: A few at 1829 meters
  • Visibility: Greater than 10 km
  • Wind: Variable at 5
  • Expected to arise temporarily, from 20 May at 11:00 UTC, to day 20 of the month at 15:00 UTC
  • Clouds: A few at 1829 meters, cumulonimbus
  • Wind: 190 degrees at 8